sensor_id;sensor_type;location;lat;lon;timestamp;temperature;humidity
40023;DHT22;25713;-35.352;149.036;2023-05-02T00:01:46;13.80;90.00
40023;DHT22;25713;-35.352;149.036;2023-05-02T00:04:15;13.70;90.20
40023;DHT22;25713;-35.352;149.036;2023-05-02T00:06:45;13.70;90.30
40023;DHT22;25713;-35.352;149.036;2023-05-02T00:09:14;13.60;90.50
40023;DHT22;25713;-35.352;149.036;2023-05-02T00:11:45;13.60;90.70
40023;DHT22;25713;-35.352;149.036;2023-05-02T00:14:15;13.60;90.60
40023;DHT22;25713;-35.352;149.036;2023-05-02T00:16:44;13.60;90.70
40023;DHT22;25713;-35.352;149.036;2023-05-02T00:19:13;13.60;90.80
40023;DHT22;25713;-35.352;149.036;2023-05-02T00:21:43;13.60;90.80
40023;DHT22;25713;-35.352;149.036;2023-05-02T00:24:15;13.60;90.90
40023;DHT22;25713;-35.352;149.036;2023-05-02T00:26:47;13.60;91.00
40023;DHT22;25713;-35.352;149.036;2023-05-02T00:29:17;13.60;91.10
40023;DHT22;25713;-35.352;149.036;2023-05-02T00:31:46;13.60;91.00
40023;DHT22;25713;-35.352;149.036;2023-05-02T00:34:15;13.60;91.20
40023;DHT22;25713;-35.352;149.036;2023-05-02T00:36:45;13.60;91.00
40023;DHT22;25713;-35.352;149.036;2023-05-02T00:39:14;13.60;91.00
40023;DHT22;25713;-35.352;149.036;2023-05-02T00:41:47;13.60;91.20
40023;DHT22;25713;-35.352;149.036;2023-05-02T00:44:16;13.70;91.00
40023;DHT22;25713;-35.352;149.036;2023-05-02T00:46:46;13.70;90.90
40023;DHT22;25713;-35.352;149.036;2023-05-02T00:49:15;13.80;91.10
40023;DHT22;25713;-35.352;149.036;2023-05-02T00:51:44;13.80;91.30
40023;DHT22;25713;-35.352;149.036;2023-05-02T00:54:14;13.70;91.10
40023;DHT22;25713;-35.352;149.036;2023-05-02T00:56:45;13.70;91.20
40023;DHT22;25713;-35.352;149.036;2023-05-02T00:59:15;13.70;91.00
40023;DHT22;25713;-35.352;149.036;2023-05-02T01:01:54;13.70;91.30
40023;DHT22;25713;-35.352;149.036;2023-05-02T01:04:33;13.80;91.20
40023;DHT22;25713;-35.352;149.036;2023-05-02T01:07:18;13.80;91.30
40023;DHT22;25713;-35.352;149.036;2023-05-02T01:09:59;13.80;91.20
40023;DHT22;25713;-35.352;149.036;2023-05-02T01:12:34;13.80;91.20
40023;DHT22;25713;-35.352;149.036;2023-05-02T01:15:08;13.80;90.80
40023;DHT22;25713;-35.352;149.036;2023-05-02T01:17:39;13.90;90.90
40023;DHT22;25713;-35.352;149.036;2023-05-02T01:20:12;13.90;90.80
40023;DHT22;25713;-35.352;149.036;2023-05-02T01:22:42;13.90;90.90
40023;DHT22;25713;-35.352;149.036;2023-05-02T01:25:21;13.90;90.90
40023;DHT22;25713;-35.352;149.036;2023-05-02T01:28:09;13.90;90.80
40023;DHT22;25713;-35.352;149.036;2023-05-02T01:30:43;13.90;90.70
40023;DHT22;25713;-35.352;149.036;2023-05-02T01:33:15;13.90;90.50
40023;DHT22;25713;-35.352;149.036;2023-05-02T01:35:47;13.90;90.40
40023;DHT22;25713;-35.352;149.036;2023-05-02T01:38:19;13.90;90.10
40023;DHT22;25713;-35.352;149.036;2023-05-02T01:40:50;13.90;90.30
40023;DHT22;25713;-35.352;149.036;2023-05-02T01:43:21;13.90;90.30
40023;DHT22;25713;-35.352;149.036;2023-05-02T01:45:54;14.00;90.10
40023;DHT22;25713;-35.352;149.036;2023-05-02T01:48:26;14.00;90.00
40023;DHT22;25713;-35.352;149.036;2023-05-02T01:50:56;14.00;90.00
40023;DHT22;25713;-35.352;149.036;2023-05-02T01:53:27;14.00;89.70
40023;DHT22;25713;-35.352;149.036;2023-05-02T01:55:59;14.00;89.70
40023;DHT22;25713;-35.352;149.036;2023-05-02T01:58:30;14.00;89.40
40023;DHT22;25713;-35.352;149.036;2023-05-02T02:01:03;14.00;89.70
40023;DHT22;25713;-35.352;149.036;2023-05-02T02:03:34;14.00;89.70
40023;DHT22;25713;-35.352;149.036;2023-05-02T02:06:04;14.00;89.40
40023;DHT22;25713;-35.352;149.036;2023-05-02T02:08:35;14.00;89.40
40023;DHT22;25713;-35.352;149.036;2023-05-02T02:11:08;14.00;89.70
40023;DHT22;25713;-35.352;149.036;2023-05-02T02:13:44;14.00;89.80
40023;DHT22;25713;-35.352;149.036;2023-05-02T02:16:21;14.00;90.00
40023;DHT22;25713;-35.352;149.036;2023-05-02T02:18:54;14.00;89.80
40023;DHT22;25713;-35.352;149.036;2023-05-02T02:21:29;14.00;89.80
40023;DHT22;25713;-35.352;149.036;2023-05-02T02:24:02;14.10;89.70
40023;DHT22;25713;-35.352;149.036;2023-05-02T02:26:32;14.10;89.10
40023;DHT22;25713;-35.352;149.036;2023-05-02T02:29:02;14.10;89.40
40023;DHT22;25713;-35.352;149.036;2023-05-02T02:31:36;14.20;88.80
40023;DHT22;25713;-35.352;149.036;2023-05-02T02:34:06;14.20;88.80
40023;DHT22;25713;-35.352;149.036;2023-05-02T02:36:38;14.20;88.90
40023;DHT22;25713;-35.352;149.036;2023-05-02T02:39:30;14.20;88.70
40023;DHT22;25713;-35.352;149.036;2023-05-02T02:42:10;14.30;89.00
40023;DHT22;25713;-35.352;149.036;2023-05-02T02:44:51;14.40;88.60
40023;DHT22;25713;-35.352;149.036;2023-05-02T02:47:30;14.50;87.40
40023;DHT22;25713;-35.352;149.036;2023-05-02T02:50:13;14.50;86.40
40023;DHT22;25713;-35.352;149.036;2023-05-02T02:52:52;14.50;88.10
40023;DHT22;25713;-35.352;149.036;2023-05-02T02:55:35;14.70;88.90
40023;DHT22;25713;-35.352;149.036;2023-05-02T02:58:19;14.70;88.50
40023;DHT22;25713;-35.352;149.036;2023-05-02T03:00:49;14.70;87.30
40023;DHT22;25713;-35.352;149.036;2023-05-02T03:03:24;14.80;86.80
40023;DHT22;25713;-35.352;149.036;2023-05-02T03:05:55;14.80;87.10
40023;DHT22;25713;-35.352;149.036;2023-05-02T03:08:26;14.80;86.70
40023;DHT22;25713;-35.352;149.036;2023-05-02T03:10:55;14.80;87.70
40023;DHT22;25713;-35.352;149.036;2023-05-02T03:13:25;14.80;87.60
40023;DHT22;25713;-35.352;149.036;2023-05-02T03:18:58;14.60;87.10
40023;DHT22;25713;-35.352;149.036;2023-05-02T03:21:27;14.60;86.90
40023;DHT22;25713;-35.352;149.036;2023-05-02T03:23:59;14.60;85.90
40023;DHT22;25713;-35.352;149.036;2023-05-02T03:26:29;14.60;87.00
40023;DHT22;25713;-35.352;149.036;2023-05-02T03:28:58;14.70;86.70
40023;DHT22;25713;-35.352;149.036;2023-05-02T03:31:34;14.70;86.20
40023;DHT22;25713;-35.352;149.036;2023-05-02T03:34:07;14.70;85.50
40023;DHT22;25713;-35.352;149.036;2023-05-02T03:36:38;14.70;85.40
40023;DHT22;25713;-35.352;149.036;2023-05-02T03:39:09;14.80;86.30
40023;DHT22;25713;-35.352;149.036;2023-05-02T03:41:39;14.90;84.20
40023;DHT22;25713;-35.352;149.036;2023-05-02T03:44:10;14.90;84.90
40023;DHT22;25713;-35.352;149.036;2023-05-02T03:46:39;15.00;85.10
40023;DHT22;25713;-35.352;149.036;2023-05-02T03:49:16;14.90;82.60
40023;DHT22;25713;-35.352;149.036;2023-05-02T03:51:47;14.90;85.10
40023;DHT22;25713;-35.352;149.036;2023-05-02T03:54:22;14.90;84.80
40023;DHT22;25713;-35.352;149.036;2023-05-02T03:56:54;14.80;83.20
40023;DHT22;25713;-35.352;149.036;2023-05-02T03:59:33;14.80;84.50
40023;DHT22;25713;-35.352;149.036;2023-05-02T04:02:08;14.90;84.90
40023;DHT22;25713;-35.352;149.036;2023-05-02T04:04:47;14.90;84.00
40023;DHT22;25713;-35.352;149.036;2023-05-02T04:07:20;14.90;84.30
40023;DHT22;25713;-35.352;149.036;2023-05-02T04:09:58;14.90;84.70
40023;DHT22;25713;-35.352;149.036;2023-05-02T04:12:28;14.90;84.00
40023;DHT22;25713;-35.352;149.036;2023-05-02T04:14:58;14.90;83.80
40023;DHT22;25713;-35.352;149.036;2023-05-02T04:17:30;15.00;83.90
40023;DHT22;25713;-35.352;149.036;2023-05-02T04:20:02;15.00;82.00
40023;DHT22;25713;-35.352;149.036;2023-05-02T04:22:32;15.00;83.00
40023;DHT22;25713;-35.352;149.036;2023-05-02T04:25:05;15.10;84.30
40023;DHT22;25713;-35.352;149.036;2023-05-02T04:27:37;15.10;83.30
40023;DHT22;25713;-35.352;149.036;2023-05-02T04:30:09;15.10;83.70
40023;DHT22;25713;-35.352;149.036;2023-05-02T04:32:40;15.10;83.80
40023;DHT22;25713;-35.352;149.036;2023-05-02T04:35:13;15.10;85.00
40023;DHT22;25713;-35.352;149.036;2023-05-02T04:37:42;15.00;83.10
40023;DHT22;25713;-35.352;149.036;2023-05-02T04:40:13;14.90;80.90
40023;DHT22;25713;-35.352;149.036;2023-05-02T04:42:44;14.80;82.50
40023;DHT22;25713;-35.352;149.036;2023-05-02T04:45:17;14.80;82.90
40023;DHT22;25713;-35.352;149.036;2023-05-02T04:47:48;14.70;82.10
40023;DHT22;25713;-35.352;149.036;2023-05-02T04:50:19;14.60;82.40
40023;DHT22;25713;-35.352;149.036;2023-05-02T04:52:49;14.60;83.20
40023;DHT22;25713;-35.352;149.036;2023-05-02T04:55:18;14.60;83.00
40023;DHT22;25713;-35.352;149.036;2023-05-02T04:57:48;14.50;82.90
40023;DHT22;25713;-35.352;149.036;2023-05-02T05:00:18;14.50;83.20
40023;DHT22;25713;-35.352;149.036;2023-05-02T05:02:48;14.60;83.30
40023;DHT22;25713;-35.352;149.036;2023-05-02T05:05:20;14.60;84.10
40023;DHT22;25713;-35.352;149.036;2023-05-02T05:07:49;14.60;83.80
40023;DHT22;25713;-35.352;149.036;2023-05-02T05:10:19;14.60;83.00
40023;DHT22;25713;-35.352;149.036;2023-05-02T05:12:49;14.60;83.90
40023;DHT22;25713;-35.352;149.036;2023-05-02T05:15:18;14.60;83.80
40023;DHT22;25713;-35.352;149.036;2023-05-02T05:17:52;14.60;83.70
40023;DHT22;25713;-35.352;149.036;2023-05-02T05:20:24;14.60;84.70
40023;DHT22;25713;-35.352;149.036;2023-05-02T05:22:57;14.60;83.80
40023;DHT22;25713;-35.352;149.036;2023-05-02T05:25:27;14.60;83.50
40023;DHT22;25713;-35.352;149.036;2023-05-02T05:27:59;14.60;84.30
40023;DHT22;25713;-35.352;149.036;2023-05-02T05:30:29;14.60;84.60
40023;DHT22;25713;-35.352;149.036;2023-05-02T05:33:00;14.50;83.80
40023;DHT22;25713;-35.352;149.036;2023-05-02T05:35:33;14.50;84.50
40023;DHT22;25713;-35.352;149.036;2023-05-02T05:38:03;14.60;84.60
40023;DHT22;25713;-35.352;149.036;2023-05-02T05:40:35;14.60;84.60
40023;DHT22;25713;-35.352;149.036;2023-05-02T05:43:05;14.50;83.60
40023;DHT22;25713;-35.352;149.036;2023-05-02T05:45:38;14.50;84.50
40023;DHT22;25713;-35.352;149.036;2023-05-02T05:48:09;14.60;85.10
40023;DHT22;25713;-35.352;149.036;2023-05-02T05:50:47;14.60;83.80
40023;DHT22;25713;-35.352;149.036;2023-05-02T05:53:16;14.50;84.00
40023;DHT22;25713;-35.352;149.036;2023-05-02T05:55:49;14.50;83.90
40023;DHT22;25713;-35.352;149.036;2023-05-02T05:58:20;14.50;83.50
40023;DHT22;25713;-35.352;149.036;2023-05-02T06:00:50;14.50;84.50
40023;DHT22;25713;-35.352;149.036;2023-05-02T06:03:20;14.50;83.50
40023;DHT22;25713;-35.352;149.036;2023-05-02T06:05:52;14.50;82.70
40023;DHT22;25713;-35.352;149.036;2023-05-02T06:08:21;14.50;82.30
40023;DHT22;25713;-35.352;149.036;2023-05-02T06:10:51;14.50;82.40
40023;DHT22;25713;-35.352;149.036;2023-05-02T06:13:20;14.50;82.80
40023;DHT22;25713;-35.352;149.036;2023-05-02T06:15:51;14.50;82.50
40023;DHT22;25713;-35.352;149.036;2023-05-02T06:18:20;14.60;82.60
40023;DHT22;25713;-35.352;149.036;2023-05-02T06:20:52;14.50;81.80
40023;DHT22;25713;-35.352;149.036;2023-05-02T06:23:21;14.50;82.10
40023;DHT22;25713;-35.352;149.036;2023-05-02T06:25:52;14.50;81.10
40023;DHT22;25713;-35.352;149.036;2023-05-02T06:28:22;14.50;82.00
40023;DHT22;25713;-35.352;149.036;2023-05-02T06:30:57;14.50;82.30
40023;DHT22;25713;-35.352;149.036;2023-05-02T06:33:27;14.50;82.10
40023;DHT22;25713;-35.352;149.036;2023-05-02T06:35:59;14.50;81.90
40023;DHT22;25713;-35.352;149.036;2023-05-02T06:38:29;14.50;81.70
40023;DHT22;25713;-35.352;149.036;2023-05-02T06:40:58;14.40;80.40
40023;DHT22;25713;-35.352;149.036;2023-05-02T06:43:28;14.40;81.60
40023;DHT22;25713;-35.352;149.036;2023-05-02T06:45:57;14.40;81.70
40023;DHT22;25713;-35.352;149.036;2023-05-02T06:48:27;14.40;81.80
40023;DHT22;25713;-35.352;149.036;2023-05-02T06:50:58;14.40;82.10
40023;DHT22;25713;-35.352;149.036;2023-05-02T06:53:28;14.40;81.90
40023;DHT22;25713;-35.352;149.036;2023-05-02T06:55:57;14.30;81.60
40023;DHT22;25713;-35.352;149.036;2023-05-02T06:58:27;14.30;82.00
40023;DHT22;25713;-35.352;149.036;2023-05-02T07:00:56;14.30;81.70
40023;DHT22;25713;-35.352;149.036;2023-05-02T07:03:26;14.30;82.00
40023;DHT22;25713;-35.352;149.036;2023-05-02T07:05:57;14.30;82.40
40023;DHT22;25713;-35.352;149.036;2023-05-02T07:08:26;14.30;82.20
40023;DHT22;25713;-35.352;149.036;2023-05-02T07:10:56;14.40;83.50
40023;DHT22;25713;-35.352;149.036;2023-05-02T07:13:25;14.30;82.40
40023;DHT22;25713;-35.352;149.036;2023-05-02T07:15:55;14.30;82.50
40023;DHT22;25713;-35.352;149.036;2023-05-02T07:18:24;14.30;83.30
40023;DHT22;25713;-35.352;149.036;2023-05-02T07:20:54;14.20;81.80
40023;DHT22;25713;-35.352;149.036;2023-05-02T07:23:25;14.20;82.30
40023;DHT22;25713;-35.352;149.036;2023-05-02T07:25:54;14.30;83.80
40023;DHT22;25713;-35.352;149.036;2023-05-02T07:28:24;14.30;82.30
40023;DHT22;25713;-35.352;149.036;2023-05-02T07:30:54;14.30;82.40
40023;DHT22;25713;-35.352;149.036;2023-05-02T07:33:23;14.20;81.80
40023;DHT22;25713;-35.352;149.036;2023-05-02T07:35:52;14.20;80.40
40023;DHT22;25713;-35.352;149.036;2023-05-02T07:38:26;14.20;83.60
40023;DHT22;25713;-35.352;149.036;2023-05-02T07:40:57;14.20;82.40
40023;DHT22;25713;-35.352;149.036;2023-05-02T07:43:26;14.30;84.10
40023;DHT22;25713;-35.352;149.036;2023-05-02T07:45:56;14.30;84.50
40023;DHT22;25713;-35.352;149.036;2023-05-02T07:48:25;14.40;84.50
40023;DHT22;25713;-35.352;149.036;2023-05-02T07:50:54;14.40;83.90
40023;DHT22;25713;-35.352;149.036;2023-05-02T07:53:27;14.40;84.30
40023;DHT22;25713;-35.352;149.036;2023-05-02T07:55:57;14.40;83.50
40023;DHT22;25713;-35.352;149.036;2023-05-02T07:58:26;14.40;85.30
40023;DHT22;25713;-35.352;149.036;2023-05-02T08:00:56;14.50;85.50
40023;DHT22;25713;-35.352;149.036;2023-05-02T08:03:26;14.50;85.40
40023;DHT22;25713;-35.352;149.036;2023-05-02T08:05:56;14.50;84.70
40023;DHT22;25713;-35.352;149.036;2023-05-02T08:08:27;14.60;84.50
40023;DHT22;25713;-35.352;149.036;2023-05-02T08:10:57;14.60;84.10
40023;DHT22;25713;-35.352;149.036;2023-05-02T08:13:27;14.60;83.90
40023;DHT22;25713;-35.352;149.036;2023-05-02T08:15:56;14.60;83.60
40023;DHT22;25713;-35.352;149.036;2023-05-02T08:18:26;14.70;83.40
40023;DHT22;25713;-35.352;149.036;2023-05-02T08:20:56;14.60;82.90
40023;DHT22;25713;-35.352;149.036;2023-05-02T08:23:28;14.60;83.90
40023;DHT22;25713;-35.352;149.036;2023-05-02T08:25:58;14.60;83.60
40023;DHT22;25713;-35.352;149.036;2023-05-02T08:28:27;14.60;83.80
40023;DHT22;25713;-35.352;149.036;2023-05-02T08:30:57;14.60;84.20
40023;DHT22;25713;-35.352;149.036;2023-05-02T08:33:27;14.60;84.40
40023;DHT22;25713;-35.352;149.036;2023-05-02T08:35:56;14.60;84.00
40023;DHT22;25713;-35.352;149.036;2023-05-02T08:38:27;14.60;83.90
40023;DHT22;25713;-35.352;149.036;2023-05-02T08:40:57;14.70;83.70
40023;DHT22;25713;-35.352;149.036;2023-05-02T08:43:26;14.70;83.80
40023;DHT22;25713;-35.352;149.036;2023-05-02T08:45:58;14.70;83.50
40023;DHT22;25713;-35.352;149.036;2023-05-02T08:48:28;14.70;83.70
40023;DHT22;25713;-35.352;149.036;2023-05-02T08:50:59;14.70;83.60
40023;DHT22;25713;-35.352;149.036;2023-05-02T08:53:33;14.70;83.80
40023;DHT22;25713;-35.352;149.036;2023-05-02T08:56:03;14.70;83.60
40023;DHT22;25713;-35.352;149.036;2023-05-02T08:58:33;14.70;83.90
40023;DHT22;25713;-35.352;149.036;2023-05-02T09:01:09;14.70;84.10
40023;DHT22;25713;-35.352;149.036;2023-05-02T09:03:39;14.70;84.10
40023;DHT22;25713;-35.352;149.036;2023-05-02T09:06:12;14.70;84.00
40023;DHT22;25713;-35.352;149.036;2023-05-02T09:08:45;14.70;84.30
40023;DHT22;25713;-35.352;149.036;2023-05-02T09:11:16;14.80;86.00
40023;DHT22;25713;-35.352;149.036;2023-05-02T09:13:46;14.70;85.90
40023;DHT22;25713;-35.352;149.036;2023-05-02T09:16:18;14.70;86.50
40023;DHT22;25713;-35.352;149.036;2023-05-02T09:18:49;14.70;86.60
40023;DHT22;25713;-35.352;149.036;2023-05-02T09:21:20;14.70;86.10
40023;DHT22;25713;-35.352;149.036;2023-05-02T09:23:54;14.70;86.20
40023;DHT22;25713;-35.352;149.036;2023-05-02T09:26:25;14.70;85.30
40023;DHT22;25713;-35.352;149.036;2023-05-02T09:28:55;14.70;86.30
40023;DHT22;25713;-35.352;149.036;2023-05-02T09:31:25;14.70;87.40
40023;DHT22;25713;-35.352;149.036;2023-05-02T09:33:55;14.70;86.80
40023;DHT22;25713;-35.352;149.036;2023-05-02T09:36:25;14.70;86.40
40023;DHT22;25713;-35.352;149.036;2023-05-02T09:39:08;14.70;86.40
40023;DHT22;25713;-35.352;149.036;2023-05-02T09:41:40;14.70;86.40
40023;DHT22;25713;-35.352;149.036;2023-05-02T09:44:11;14.70;87.10
40023;DHT22;25713;-35.352;149.036;2023-05-02T09:46:41;14.70;86.40
40023;DHT22;25713;-35.352;149.036;2023-05-02T09:49:11;14.70;86.50
40023;DHT22;25713;-35.352;149.036;2023-05-02T09:51:41;14.70;87.00
40023;DHT22;25713;-35.352;149.036;2023-05-02T09:54:12;14.70;86.00
40023;DHT22;25713;-35.352;149.036;2023-05-02T09:57:02;14.70;86.80
40023;DHT22;25713;-35.352;149.036;2023-05-02T09:59:31;14.70;87.00
40023;DHT22;25713;-35.352;149.036;2023-05-02T10:02:02;14.70;86.80
40023;DHT22;25713;-35.352;149.036;2023-05-02T10:04:32;14.70;87.00
40023;DHT22;25713;-35.352;149.036;2023-05-02T10:07:03;14.60;87.00
40023;DHT22;25713;-35.352;149.036;2023-05-02T10:09:36;14.70;88.10
40023;DHT22;25713;-35.352;149.036;2023-05-02T10:12:07;14.60;87.70
40023;DHT22;25713;-35.352;149.036;2023-05-02T10:14:39;14.60;87.80
40023;DHT22;25713;-35.352;149.036;2023-05-02T10:17:14;14.60;86.30
40023;DHT22;25713;-35.352;149.036;2023-05-02T10:19:51;14.60;86.30
40023;DHT22;25713;-35.352;149.036;2023-05-02T10:22:22;14.60;85.40
40023;DHT22;25713;-35.352;149.036;2023-05-02T10:24:55;14.70;85.80
40023;DHT22;25713;-35.352;149.036;2023-05-02T10:27:26;14.60;85.50
40023;DHT22;25713;-35.352;149.036;2023-05-02T10:29:58;14.70;85.80
40023;DHT22;25713;-35.352;149.036;2023-05-02T10:32:28;14.60;88.30
40023;DHT22;25713;-35.352;149.036;2023-05-02T10:35:03;14.70;87.30
40023;DHT22;25713;-35.352;149.036;2023-05-02T10:37:33;14.60;86.30
40023;DHT22;25713;-35.352;149.036;2023-05-02T10:40:10;14.70;85.90
40023;DHT22;25713;-35.352;149.036;2023-05-02T10:42:42;14.60;86.40
40023;DHT22;25713;-35.352;149.036;2023-05-02T10:45:12;14.60;85.90
40023;DHT22;25713;-35.352;149.036;2023-05-02T10:48:15;14.60;86.30
40023;DHT22;25713;-35.352;149.036;2023-05-02T10:50:49;14.60;86.70
40023;DHT22;25713;-35.352;149.036;2023-05-02T10:53:29;14.60;86.50
40023;DHT22;25713;-35.352;149.036;2023-05-02T10:56:13;14.60;86.10
40023;DHT22;25713;-35.352;149.036;2023-05-02T10:58:44;14.60;85.60
40023;DHT22;25713;-35.352;149.036;2023-05-02T11:01:43;14.60;85.80
40023;DHT22;25713;-35.352;149.036;2023-05-02T11:04:12;14.60;85.80
40023;DHT22;25713;-35.352;149.036;2023-05-02T11:09:42;14.50;86.30
40023;DHT22;25713;-35.352;149.036;2023-05-02T11:18:20;14.60;86.60
40023;DHT22;25713;-35.352;149.036;2023-05-02T11:20:50;14.60;86.10
40023;DHT22;25713;-35.352;149.036;2023-05-02T11:23:23;14.60;86.20
40023;DHT22;25713;-35.352;149.036;2023-05-02T11:25:54;14.60;86.60
40023;DHT22;25713;-35.352;149.036;2023-05-02T11:28:44;14.60;86.40
40023;DHT22;25713;-35.352;149.036;2023-05-02T11:34:14;14.60;86.70
40023;DHT22;25713;-35.352;149.036;2023-05-02T11:36:43;14.60;87.10
40023;DHT22;25713;-35.352;149.036;2023-05-02T11:39:19;14.60;86.60
40023;DHT22;25713;-35.352;149.036;2023-05-02T11:41:49;14.60;86.60
40023;DHT22;25713;-35.352;149.036;2023-05-02T11:44:20;14.60;86.20
40023;DHT22;25713;-35.352;149.036;2023-05-02T11:46:49;14.60;86.60
40023;DHT22;25713;-35.352;149.036;2023-05-02T11:49:19;14.60;86.50
40023;DHT22;25713;-35.352;149.036;2023-05-02T11:51:48;14.60;86.50
40023;DHT22;25713;-35.352;149.036;2023-05-02T11:54:19;14.60;86.80
40023;DHT22;25713;-35.352;149.036;2023-05-02T11:56:49;14.60;86.10
40023;DHT22;25713;-35.352;149.036;2023-05-02T11:59:20;14.60;86.20
40023;DHT22;25713;-35.352;149.036;2023-05-02T12:01:50;14.60;85.90
40023;DHT22;25713;-35.352;149.036;2023-05-02T12:04:19;14.60;86.30
40023;DHT22;25713;-35.352;149.036;2023-05-02T12:06:58;14.60;85.90
40023;DHT22;25713;-35.352;149.036;2023-05-02T12:09:27;14.60;86.00
40023;DHT22;25713;-35.352;149.036;2023-05-02T12:11:57;14.50;86.10
40023;DHT22;25713;-35.352;149.036;2023-05-02T12:14:31;14.60;86.20
40023;DHT22;25713;-35.352;149.036;2023-05-02T12:17:02;14.50;86.80
40023;DHT22;25713;-35.352;149.036;2023-05-02T12:19:32;14.50;86.60
40023;DHT22;25713;-35.352;149.036;2023-05-02T12:22:01;14.50;86.70
40023;DHT22;25713;-35.352;149.036;2023-05-02T12:24:30;14.50;87.20
40023;DHT22;25713;-35.352;149.036;2023-05-02T12:27:13;14.50;87.60
40023;DHT22;25713;-35.352;149.036;2023-05-02T12:29:47;14.50;88.00
40023;DHT22;25713;-35.352;149.036;2023-05-02T12:32:27;14.50;87.40
40023;DHT22;25713;-35.352;149.036;2023-05-02T12:34:57;14.50;87.80
40023;DHT22;25713;-35.352;149.036;2023-05-02T12:37:27;14.50;87.40
40023;DHT22;25713;-35.352;149.036;2023-05-02T12:39:56;14.50;87.70
40023;DHT22;25713;-35.352;149.036;2023-05-02T12:42:26;14.50;89.00
40023;DHT22;25713;-35.352;149.036;2023-05-02T12:44:58;14.50;88.10
40023;DHT22;25713;-35.352;149.036;2023-05-02T12:47:28;14.50;88.60
40023;DHT22;25713;-35.352;149.036;2023-05-02T12:49:57;14.50;88.60
40023;DHT22;25713;-35.352;149.036;2023-05-02T12:52:47;14.60;90.00
40023;DHT22;25713;-35.352;149.036;2023-05-02T12:55:17;14.50;89.30
40023;DHT22;25713;-35.352;149.036;2023-05-02T12:57:46;14.50;88.90
40023;DHT22;25713;-35.352;149.036;2023-05-02T13:00:20;14.60;89.50
40023;DHT22;25713;-35.352;149.036;2023-05-02T13:02:49;14.50;89.60
40023;DHT22;25713;-35.352;149.036;2023-05-02T13:05:19;14.50;89.90
40023;DHT22;25713;-35.352;149.036;2023-05-02T13:07:49;14.60;90.10
40023;DHT22;25713;-35.352;149.036;2023-05-02T13:10:18;14.60;90.70
40023;DHT22;25713;-35.352;149.036;2023-05-02T13:12:48;14.60;90.30
40023;DHT22;25713;-35.352;149.036;2023-05-02T13:15:19;14.60;90.30
40023;DHT22;25713;-35.352;149.036;2023-05-02T13:17:50;14.60;90.40
40023;DHT22;25713;-35.352;149.036;2023-05-02T13:20:19;14.60;90.40
40023;DHT22;25713;-35.352;149.036;2023-05-02T13:22:49;14.50;90.10
40023;DHT22;25713;-35.352;149.036;2023-05-02T13:25:18;14.50;89.60
40023;DHT22;25713;-35.352;149.036;2023-05-02T13:27:48;14.50;89.80
40023;DHT22;25713;-35.352;149.036;2023-05-02T13:30:19;14.50;89.10
40023;DHT22;25713;-35.352;149.036;2023-05-02T13:32:49;14.50;89.50
40023;DHT22;25713;-35.352;149.036;2023-05-02T13:35:18;14.50;89.10
40023;DHT22;25713;-35.352;149.036;2023-05-02T13:37:47;14.50;89.50
40023;DHT22;25713;-35.352;149.036;2023-05-02T13:40:17;14.50;89.10
40023;DHT22;25713;-35.352;149.036;2023-05-02T13:42:46;14.50;89.00
40023;DHT22;25713;-35.352;149.036;2023-05-02T13:45:17;14.40;89.00
40023;DHT22;25713;-35.352;149.036;2023-05-02T13:47:47;14.40;89.90
40023;DHT22;25713;-35.352;149.036;2023-05-02T13:50:16;14.40;89.70
40023;DHT22;25713;-35.352;149.036;2023-05-02T13:52:46;14.40;89.20
40023;DHT22;25713;-35.352;149.036;2023-05-02T13:55:15;14.40;90.00
40023;DHT22;25713;-35.352;149.036;2023-05-02T13:57:44;14.40;89.90
40023;DHT22;25713;-35.352;149.036;2023-05-02T14:00:14;14.40;89.60
40023;DHT22;25713;-35.352;149.036;2023-05-02T14:02:47;14.40;89.40
40023;DHT22;25713;-35.352;149.036;2023-05-02T14:05:15;14.40;90.00
40023;DHT22;25713;-35.352;149.036;2023-05-02T14:07:44;14.40;90.10
40023;DHT22;25713;-35.352;149.036;2023-05-02T14:10:14;14.40;90.10
40023;DHT22;25713;-35.352;149.036;2023-05-02T14:12:43;14.50;90.10
40023;DHT22;25713;-35.352;149.036;2023-05-02T14:15:13;14.50;89.80
40023;DHT22;25713;-35.352;149.036;2023-05-02T14:17:44;14.40;89.70
40023;DHT22;25713;-35.352;149.036;2023-05-02T14:20:13;14.40;89.70
40023;DHT22;25713;-35.352;149.036;2023-05-02T14:22:43;14.40;90.00
40023;DHT22;25713;-35.352;149.036;2023-05-02T14:25:12;14.40;90.30
40023;DHT22;25713;-35.352;149.036;2023-05-02T14:27:41;14.40;90.20
40023;DHT22;25713;-35.352;149.036;2023-05-02T14:30:11;14.40;90.00
40023;DHT22;25713;-35.352;149.036;2023-05-02T14:32:41;14.40;90.20
40023;DHT22;25713;-35.352;149.036;2023-05-02T14:35:14;14.40;90.60
40023;DHT22;25713;-35.352;149.036;2023-05-02T14:37:44;14.40;90.60
40023;DHT22;25713;-35.352;149.036;2023-05-02T14:40:13;14.50;90.50
40023;DHT22;25713;-35.352;149.036;2023-05-02T14:42:43;14.40;90.20
40023;DHT22;25713;-35.352;149.036;2023-05-02T14:45:13;14.40;90.30
40023;DHT22;25713;-35.352;149.036;2023-05-02T14:47:42;14.40;90.60
40023;DHT22;25713;-35.352;149.036;2023-05-02T15:51:15;14.20;91.10
40023;DHT22;25713;-35.352;149.036;2023-05-02T15:53:44;14.10;91.50
40023;DHT22;25713;-35.352;149.036;2023-05-02T15:56:14;14.10;90.90
40023;DHT22;25713;-35.352;149.036;2023-05-02T15:58:43;13.90;91.20
40023;DHT22;25713;-35.352;149.036;2023-05-02T16:01:13;13.90;91.20
40023;DHT22;25713;-35.352;149.036;2023-05-02T16:03:42;13.80;91.30
40023;DHT22;25713;-35.352;149.036;2023-05-02T16:06:14;13.80;91.10
40023;DHT22;25713;-35.352;149.036;2023-05-02T16:08:43;13.90;91.20
40023;DHT22;25713;-35.352;149.036;2023-05-02T16:11:13;13.80;91.00
40023;DHT22;25713;-35.352;149.036;2023-05-02T16:13:42;13.80;91.20
40023;DHT22;25713;-35.352;149.036;2023-05-02T16:16:11;13.80;91.00
40023;DHT22;25713;-35.352;149.036;2023-05-02T16:18:41;13.80;91.10
40023;DHT22;25713;-35.352;149.036;2023-05-02T16:21:12;13.80;91.50
40023;DHT22;25713;-35.352;149.036;2023-05-02T16:23:41;13.70;91.20
40023;DHT22;25713;-35.352;149.036;2023-05-02T16:26:11;13.80;91.10
40023;DHT22;25713;-35.352;149.036;2023-05-02T16:28:40;13.90;91.30
40023;DHT22;25713;-35.352;149.036;2023-05-02T16:31:10;13.80;91.10